Private Wetterstation Nrnberg - Katzwang
Wetterdaten: Februar 2015
Datum Temp. A. Feuchte A. Luftdruck Regen Wind Richtung Taupunkt Windchill Windben
01.02.2015 -0,0 C 84 % 990 hPa 0,5 l/m 3,5 km/h NO -2,4 C -1,7 C 2,9 km/h
02.02.2015 0,4 C 84 % 997 hPa 1,0 l/m 4,4 km/h N -2,0 C -0,9 C 3,7 km/h
03.02.2015 -1,0 C 81 % 1001 hPa 0,5 l/m 0,0 km/h N -3,8 C -1,0 C 0,0 km/h
04.02.2015 -2,0 C 79 % 1009 hPa 0,0 l/m 1,6 km/h N-NO -5,2 C -2,0 C 1,3 km/h
05.02.2015 -1,8 C 75 % 1014 hPa 0,0 l/m 13,5 km/h N-NO -5,6 C -7,6 C 18,8 km/h
06.02.2015 -1,9 C 74 % 1019 hPa 0,0 l/m 13,9 km/h O -6,0 C -7,7 C 12,0 km/h
07.02.2015 -3,3 C 75 % 1022 hPa 0,0 l/m 1,9 km/h N-NO -7,1 C -3,6 C 1,6 km/h
08.02.2015 -0,9 C 71 % 1021 hPa 0,5 l/m 6,9 km/h N -5,6 C -3,6 C 5,7 km/h
09.02.2015 1,3 C 84 % 1023 hPa 1,0 l/m 3,5 km/h W-NW -1,2 C -0,2 C 11,8 km/h
10.02.2015 2,6 C 84 % 1026 hPa 0,0 l/m 0,0 km/h W-NW 0,2 C 2,6 C 0,0 km/h
11.02.2015 1,0 C 85 % 1023 hPa 0,0 l/m 15,1 km/h O -1,2 C -5,9 C 12,5 km/h
12.02.2015 -0,2 C 86 % 1020 hPa 0,0 l/m 21,4 km/h O -2,3 C -10,3 C 17,8 km/h
13.02.2015 -0,5 C 84 % 1015 hPa 0,0 l/m 30,9 km/h O -2,8 C -13,6 C 29,3 km/h
14.02.2015 -0,7 C 83 % 1009 hPa 0,0 l/m 1,6 km/h O -3,3 C -0,7 C 1,3 km/h
15.02.2015 -1,0 C 83 % 1011 hPa 0,0 l/m 9,8 km/h O -3,6 C -4,4 C 9,4 km/h
16.02.2015 -1,0 C 84 % 1017 hPa 0,0 l/m 4,4 km/h N-NO -3,3 C -2,9 C 3,7 km/h
17.02.2015 -0,6 C 86 % 1030 hPa 0,0 l/m 0,0 km/h N -2,7 C -0,6 C 0,0 km/h
18.02.2015 0,2 C 86 % 1035 hPa 0,0 l/m 0,0 km/h NO -1,9 C 0,2 C 0,0 km/h
19.02.2015 -0,7 C 85 % 1025 hPa 0,0 l/m 2,2 km/h N-NO -3,0 C -1,4 C 1,8 km/h
20.02.2015 1,4 C 78 % 1011 hPa 0,0 l/m 12,3 km/h NO -2,3 C -2,6 C 10,2 km/h
21.02.2015 4,0 C 78 % 999 hPa 0,5 l/m 8,2 km/h NO 0,5 C 0,8 C 6,8 km/h
22.02.2015 2,0 C 81 % 1007 hPa 1,0 l/m 0,0 km/h N-NO -0,9 C 2,0 C 0,0 km/h
23.02.2015 0,9 C 86 % 999 hPa 2,1 l/m 3,2 km/h N-NO -1,3 C -0,4 C 2,6 km/h
24.02.2015 2,4 C 80 % 1008 hPa 0,5 l/m 0,0 km/h W-NW -0,8 C 2,4 C 0,0 km/h
25.02.2015 1,5 C 79 % 1017 hPa 0,0 l/m 0,9 km/h O -1,9 C 1,5 C 0,8 km/h
26.02.2015 0,5 C 75 % 1015 hPa 0,0 l/m 7,0 km/h O-NO -3,7 C -1,2 C 5,8 km/h
27.02.2015 3,1 C 76 % 1011 hPa 0,0 l/m 1,3 km/h N -0,9 C 3,1 C 1,0 km/h
28.02.2015 2,4 C 79 % 1016 hPa 0,5 l/m 11,4 km/h N-NO -1,0 C -2,5 C 9,4 km/h
Min-Datum 07.02.15 08.02.15 01.02.15 10 Tage 01.02.15 - 07.02.15 06.02.15 01.02.15
Min-Zeit 07:50 17:00 00:00 - 00:00 - 07:50 08:30 00:00
Minimum -8,2 C 52 % 986 hPa - 0,0 km/h - -10,6 C -20,8 C 0,0 km/h
Max-Datum 21.02.15 17.02.15 18.02.15 23.02.15 08.02.15 - 21.02.15 21.02.15 08.02.15
Max-Zeit 13:40 09:50 07:00 15:30 14:00 - 13:40 13:20 14:00
Maximum 11,1 C 88 % 1037 hPa 2,1 l/m 52,9 km/h
N
- 4,1 C 10,8 C 77,3 km/h
N
Durchschnitt 0,3 C 81 % 1014 hPa #8,3 l/m 6,4 km/h NO -2,7 C -2,2 C 6,1 km/h

Durchschnitt Minimum Temp.-3,0 C
Durchschnitt Maximum Temp.4,1 C